EHBK/MST METAR and TAF weather

Enter ICAO airport designator
Station Type Date Time Source
EHBK METAR 2022/11/26 08:55 UTC NOAA

EHBK 260855Z AUTO 20010KT 9999 NSC 07/06 Q1029 NOSIG


Station Type Date Time Source
EHBK Decoded METAR 2022/11/26 08:55 UTC NOAA

Maastricht Airport Zuid Limburg, Netherlands (EHBK) 50-55N 005-47E 116M
Nov 26, 2022 - 03:55 AM EST / 2022.11.26 0855 UTC
Wind: from the SSW (200 degrees) at 12 MPH (10 KT):0
Visibility: greater than 7 mile(s):0
Temperature: 44 F (7 C)
Dew Point: 42 F (6 C)
Relative Humidity: 93%
Pressure (altimeter): 30.39 in. Hg (1029 hPa)
ob: EHBK 260855Z AUTO 20010KT 9999 NSC 07/06 Q1029 NOSIG
cycle: 9

Station Type Date Time Source
EHBK TAF 2022/11/26 08:19 UTC NOAA

TAF
AMD EHBK 260816Z 2608/2712 19007KT CAVOK

Example: see airport list